sensor_id;sensor_type;location;lat;lon;timestamp;P1;durP1;ratioP1;P2;durP2;ratioP2
72715;SDS011;60830;64.560;40.542;2022-07-05T00:00:25;16.25;;;13.07;;
72715;SDS011;60830;64.560;40.542;2022-07-05T00:02:52;16.42;;;13.27;;
72715;SDS011;60830;64.560;40.542;2022-07-05T00:05:18;18.23;;;13.07;;
72715;SDS011;60830;64.560;40.542;2022-07-05T00:07:45;19.33;;;13.45;;
72715;SDS011;60830;64.560;40.542;2022-07-05T00:10:11;19.30;;;13.55;;
72715;SDS011;60830;64.560;40.542;2022-07-05T00:12:38;19.77;;;13.52;;
72715;SDS011;60830;64.560;40.542;2022-07-05T00:15:04;17.30;;;12.75;;
72715;SDS011;60830;64.560;40.542;2022-07-05T00:17:31;17.88;;;13.25;;
72715;SDS011;60830;64.560;40.542;2022-07-05T00:19:57;15.98;;;12.55;;
72715;SDS011;60830;64.560;40.542;2022-07-05T00:22:24;17.33;;;12.35;;
72715;SDS011;60830;64.560;40.542;2022-07-05T00:24:50;12.88;;;11.35;;
72715;SDS011;60830;64.560;40.542;2022-07-05T00:27:17;12.90;;;11.23;;
72715;SDS011;60830;64.560;40.542;2022-07-05T00:29:43;13.93;;;11.40;;
72715;SDS011;60830;64.560;40.542;2022-07-05T00:32:10;15.27;;;11.20;;
72715;SDS011;60830;64.560;40.542;2022-07-05T00:34:36;14.73;;;11.85;;
72715;SDS011;60830;64.560;40.542;2022-07-05T00:37:03;13.32;;;10.55;;
72715;SDS011;60830;64.560;40.542;2022-07-05T00:39:30;11.98;;;10.40;;
72715;SDS011;60830;64.560;40.542;2022-07-05T00:41:56;11.90;;;10.65;;
72715;SDS011;60830;64.560;40.542;2022-07-05T00:44:30;12.32;;;10.27;;
72715;SDS011;60830;64.560;40.542;2022-07-05T00:46:58;11.88;;;10.50;;
72715;SDS011;60830;64.560;40.542;2022-07-05T00:49:25;11.77;;;9.75;;
72715;SDS011;60830;64.560;40.542;2022-07-05T00:51:51;12.75;;;10.02;;
72715;SDS011;60830;64.560;40.542;2022-07-05T00:54:18;10.85;;;9.77;;
72715;SDS011;60830;64.560;40.542;2022-07-05T00:56:45;14.45;;;10.15;;
72715;SDS011;60830;64.560;40.542;2022-07-05T00:59:11;11.32;;;9.63;;
72715;SDS011;60830;64.560;40.542;2022-07-05T01:01:38;11.80;;;9.90;;
72715;SDS011;60830;64.560;40.542;2022-07-05T01:04:04;12.50;;;9.93;;
72715;SDS011;60830;64.560;40.542;2022-07-05T01:06:31;12.52;;;10.10;;
72715;SDS011;60830;64.560;40.542;2022-07-05T01:08:58;13.48;;;10.05;;
72715;SDS011;60830;64.560;40.542;2022-07-05T01:11:25;14.60;;;10.55;;
72715;SDS011;60830;64.560;40.542;2022-07-05T01:13:52;11.98;;;9.90;;
72715;SDS011;60830;64.560;40.542;2022-07-05T01:16:19;10.63;;;9.20;;
72715;SDS011;60830;64.560;40.542;2022-07-05T01:18:46;14.55;;;9.57;;
72715;SDS011;60830;64.560;40.542;2022-07-05T01:21:14;11.32;;;10.00;;
72715;SDS011;60830;64.560;40.542;2022-07-05T01:23:44;12.50;;;10.00;;
72715;SDS011;60830;64.560;40.542;2022-07-05T01:26:11;12.43;;;10.57;;
72715;SDS011;60830;64.560;40.542;2022-07-05T01:28:38;11.60;;;9.77;;
72715;SDS011;60830;64.560;40.542;2022-07-05T01:31:04;10.48;;;9.38;;
72715;SDS011;60830;64.560;40.542;2022-07-05T01:33:31;12.75;;;10.07;;
72715;SDS011;60830;64.560;40.542;2022-07-05T01:35:58;11.18;;;9.40;;
72715;SDS011;60830;64.560;40.542;2022-07-05T01:38:25;12.20;;;9.88;;
72715;SDS011;60830;64.560;40.542;2022-07-05T01:40:51;11.30;;;10.02;;
72715;SDS011;60830;64.560;40.542;2022-07-05T01:43:19;10.63;;;9.23;;
72715;SDS011;60830;64.560;40.542;2022-07-05T01:45:46;12.23;;;9.60;;
72715;SDS011;60830;64.560;40.542;2022-07-05T01:48:14;12.43;;;9.63;;
72715;SDS011;60830;64.560;40.542;2022-07-05T01:50:48;11.65;;;9.98;;
72715;SDS011;60830;64.560;40.542;2022-07-05T01:53:22;11.70;;;9.80;;
72715;SDS011;60830;64.560;40.542;2022-07-05T01:55:50;10.63;;;9.05;;
72715;SDS011;60830;64.560;40.542;2022-07-05T01:58:17;11.13;;;9.93;;
72715;SDS011;60830;64.560;40.542;2022-07-05T02:00:44;13.70;;;10.52;;
72715;SDS011;60830;64.560;40.542;2022-07-05T02:03:12;11.77;;;10.27;;
72715;SDS011;60830;64.560;40.542;2022-07-05T02:05:40;11.43;;;10.23;;
72715;SDS011;60830;64.560;40.542;2022-07-05T02:08:11;12.32;;;10.05;;
72715;SDS011;60830;64.560;40.542;2022-07-05T02:10:39;15.20;;;10.93;;
72715;SDS011;60830;64.560;40.542;2022-07-05T02:13:06;11.25;;;10.10;;
72715;SDS011;60830;64.560;40.542;2022-07-05T02:15:35;12.80;;;9.80;;
72715;SDS011;60830;64.560;40.542;2022-07-05T02:18:04;14.63;;;10.57;;
72715;SDS011;60830;64.560;40.542;2022-07-05T02:20:32;13.63;;;9.95;;
72715;SDS011;60830;64.560;40.542;2022-07-05T02:23:01;12.25;;;9.65;;
72715;SDS011;60830;64.560;40.542;2022-07-05T02:25:28;10.80;;;9.48;;
72715;SDS011;60830;64.560;40.542;2022-07-05T02:27:57;15.93;;;10.48;;
72715;SDS011;60830;64.560;40.542;2022-07-05T02:30:24;12.10;;;10.70;;
72715;SDS011;60830;64.560;40.542;2022-07-05T02:32:51;12.65;;;10.88;;
72715;SDS011;60830;64.560;40.542;2022-07-05T02:35:18;18.42;;;11.05;;
72715;SDS011;60830;64.560;40.542;2022-07-05T02:37:44;13.48;;;10.25;;
72715;SDS011;60830;64.560;40.542;2022-07-05T02:40:12;13.85;;;11.10;;
72715;SDS011;60830;64.560;40.542;2022-07-05T02:42:43;13.15;;;11.02;;
72715;SDS011;60830;64.560;40.542;2022-07-05T02:45:13;12.32;;;10.98;;
72715;SDS011;60830;64.560;40.542;2022-07-05T02:47:41;14.93;;;11.38;;
72715;SDS011;60830;64.560;40.542;2022-07-05T02:50:08;15.23;;;11.77;;
72715;SDS011;60830;64.560;40.542;2022-07-05T02:52:40;14.50;;;12.00;;
72715;SDS011;60830;64.560;40.542;2022-07-05T02:55:07;14.02;;;12.10;;
72715;SDS011;60830;64.560;40.542;2022-07-05T02:57:36;13.50;;;12.00;;
72715;SDS011;60830;64.560;40.542;2022-07-05T03:00:06;14.52;;;11.55;;
72715;SDS011;60830;64.560;40.542;2022-07-05T03:02:39;14.73;;;12.32;;
72715;SDS011;60830;64.560;40.542;2022-07-05T03:05:07;14.77;;;12.30;;
72715;SDS011;60830;64.560;40.542;2022-07-05T03:07:33;15.50;;;12.77;;
72715;SDS011;60830;64.560;40.542;2022-07-05T03:10:01;17.60;;;12.52;;
72715;SDS011;60830;64.560;40.542;2022-07-05T03:12:28;13.48;;;12.15;;
72715;SDS011;60830;64.560;40.542;2022-07-05T03:14:56;14.10;;;11.82;;
72715;SDS011;60830;64.560;40.542;2022-07-05T03:17:23;13.98;;;12.55;;
72715;SDS011;60830;64.560;40.542;2022-07-05T03:19:50;14.82;;;12.98;;
72715;SDS011;60830;64.560;40.542;2022-07-05T03:22:20;13.57;;;12.27;;
72715;SDS011;60830;64.560;40.542;2022-07-05T03:24:47;14.52;;;12.68;;
72715;SDS011;60830;64.560;40.542;2022-07-05T03:27:13;13.98;;;12.48;;
72715;SDS011;60830;64.560;40.542;2022-07-05T03:29:40;15.10;;;12.85;;
72715;SDS011;60830;64.560;40.542;2022-07-05T03:32:06;13.23;;;11.88;;
72715;SDS011;60830;64.560;40.542;2022-07-05T03:34:33;13.43;;;11.85;;
72715;SDS011;60830;64.560;40.542;2022-07-05T03:37:02;14.05;;;12.63;;
72715;SDS011;60830;64.560;40.542;2022-07-05T03:39:29;13.82;;;12.40;;
72715;SDS011;60830;64.560;40.542;2022-07-05T03:41:56;14.27;;;12.50;;
72715;SDS011;60830;64.560;40.542;2022-07-05T03:44:26;13.85;;;12.55;;
72715;SDS011;60830;64.560;40.542;2022-07-05T03:46:53;12.63;;;11.32;;
72715;SDS011;60830;64.560;40.542;2022-07-05T03:49:20;14.57;;;12.50;;
72715;SDS011;60830;64.560;40.542;2022-07-05T03:51:48;14.48;;;12.15;;
72715;SDS011;60830;64.560;40.542;2022-07-05T03:54:14;12.63;;;11.23;;
72715;SDS011;60830;64.560;40.542;2022-07-05T03:56:41;14.27;;;12.77;;
72715;SDS011;60830;64.560;40.542;2022-07-05T03:59:11;13.43;;;12.02;;
72715;SDS011;60830;64.560;40.542;2022-07-05T04:01:37;13.82;;;11.88;;
72715;SDS011;60830;64.560;40.542;2022-07-05T04:04:05;12.88;;;11.68;;
72715;SDS011;60830;64.560;40.542;2022-07-05T04:06:32;13.40;;;12.00;;
72715;SDS011;60830;64.560;40.542;2022-07-05T04:09:00;17.33;;;15.00;;
72715;SDS011;60830;64.560;40.542;2022-07-05T04:11:27;14.40;;;12.85;;
72715;SDS011;60830;64.560;40.542;2022-07-05T04:13:54;13.55;;;12.35;;
72715;SDS011;60830;64.560;40.542;2022-07-05T04:16:21;14.13;;;12.25;;
72715;SDS011;60830;64.560;40.542;2022-07-05T04:18:48;15.32;;;12.65;;
72715;SDS011;60830;64.560;40.542;2022-07-05T04:21:14;13.40;;;12.05;;
72715;SDS011;60830;64.560;40.542;2022-07-05T04:23:42;13.23;;;11.88;;
72715;SDS011;60830;64.560;40.542;2022-07-05T04:26:09;12.68;;;11.35;;
72715;SDS011;60830;64.560;40.542;2022-07-05T04:28:41;13.55;;;11.48;;
72715;SDS011;60830;64.560;40.542;2022-07-05T04:31:11;16.60;;;12.13;;
72715;SDS011;60830;64.560;40.542;2022-07-05T04:33:41;17.85;;;11.27;;
72715;SDS011;60830;64.560;40.542;2022-07-05T04:36:09;13.63;;;11.25;;
72715;SDS011;60830;64.560;40.542;2022-07-05T04:38:36;13.50;;;11.20;;
72715;SDS011;60830;64.560;40.542;2022-07-05T04:41:03;16.83;;;11.27;;
72715;SDS011;60830;64.560;40.542;2022-07-05T04:43:32;10.98;;;9.88;;
72715;SDS011;60830;64.560;40.542;2022-07-05T04:46:00;13.57;;;10.27;;
72715;SDS011;60830;64.560;40.542;2022-07-05T04:48:27;13.85;;;10.25;;
72715;SDS011;60830;64.560;40.542;2022-07-05T04:50:54;11.70;;;8.93;;
72715;SDS011;60830;64.560;40.542;2022-07-05T04:53:21;11.02;;;9.25;;
72715;SDS011;60830;64.560;40.542;2022-07-05T04:55:48;10.13;;;9.13;;
72715;SDS011;60830;64.560;40.542;2022-07-05T04:58:14;10.93;;;9.82;;
72715;SDS011;60830;64.560;40.542;2022-07-05T05:00:41;13.07;;;9.80;;
72715;SDS011;60830;64.560;40.542;2022-07-05T05:03:07;10.82;;;9.77;;
72715;SDS011;60830;64.560;40.542;2022-07-05T05:05:33;11.30;;;10.15;;
72715;SDS011;60830;64.560;40.542;2022-07-05T05:08:00;11.50;;;9.68;;
72715;SDS011;60830;64.560;40.542;2022-07-05T05:10:26;11.40;;;9.40;;
72715;SDS011;60830;64.560;40.542;2022-07-05T05:12:53;11.32;;;9.95;;
72715;SDS011;60830;64.560;40.542;2022-07-05T05:15:19;12.77;;;9.65;;
72715;SDS011;60830;64.560;40.542;2022-07-05T05:17:46;10.75;;;9.55;;
72715;SDS011;60830;64.560;40.542;2022-07-05T05:20:13;10.73;;;9.32;;
72715;SDS011;60830;64.560;40.542;2022-07-05T05:22:44;12.80;;;9.68;;
72715;SDS011;60830;64.560;40.542;2022-07-05T05:25:12;10.50;;;9.32;;
72715;SDS011;60830;64.560;40.542;2022-07-05T05:27:43;11.57;;;9.18;;
72715;SDS011;60830;64.560;40.542;2022-07-05T05:30:14;11.70;;;10.18;;
72715;SDS011;60830;64.560;40.542;2022-07-05T05:32:42;11.00;;;10.00;;
72715;SDS011;60830;64.560;40.542;2022-07-05T05:35:09;10.32;;;9.27;;
72715;SDS011;60830;64.560;40.542;2022-07-05T05:37:48;14.05;;;11.00;;
72715;SDS011;60830;64.560;40.542;2022-07-05T05:42:46;11.25;;;10.13;;
72715;SDS011;60830;64.560;40.542;2022-07-05T05:45:12;11.80;;;10.10;;
72715;SDS011;60830;64.560;40.542;2022-07-05T05:47:47;10.93;;;8.75;;
72715;SDS011;60830;64.560;40.542;2022-07-05T05:50:26;12.00;;;9.82;;
72715;SDS011;60830;64.560;40.542;2022-07-05T05:52:54;12.35;;;10.45;;
72715;SDS011;60830;64.560;40.542;2022-07-05T05:55:21;10.75;;;9.75;;
72715;SDS011;60830;64.560;40.542;2022-07-05T05:57:49;11.73;;;10.65;;
72715;SDS011;60830;64.560;40.542;2022-07-05T06:00:16;11.98;;;10.88;;
72715;SDS011;60830;64.560;40.542;2022-07-05T06:02:44;11.02;;;9.77;;
72715;SDS011;60830;64.560;40.542;2022-07-05T06:05:12;11.30;;;9.23;;
72715;SDS011;60830;64.560;40.542;2022-07-05T06:07:52;10.07;;;8.88;;
72715;SDS011;60830;64.560;40.542;2022-07-05T06:10:21;10.80;;;9.70;;
72715;SDS011;60830;64.560;40.542;2022-07-05T06:12:50;9.55;;;8.55;;
72715;SDS011;60830;64.560;40.542;2022-07-05T06:15:17;12.13;;;9.38;;
72715;SDS011;60830;64.560;40.542;2022-07-05T06:17:45;11.60;;;8.98;;
72715;SDS011;60830;64.560;40.542;2022-07-05T06:20:13;8.68;;;7.88;;
72715;SDS011;60830;64.560;40.542;2022-07-05T06:22:42;11.10;;;7.50;;
72715;SDS011;60830;64.560;40.542;2022-07-05T06:25:09;9.43;;;7.72;;
72715;SDS011;60830;64.560;40.542;2022-07-05T06:27:42;33.63;;;9.98;;
72715;SDS011;60830;64.560;40.542;2022-07-05T06:30:12;9.80;;;7.95;;
72715;SDS011;60830;64.560;40.542;2022-07-05T06:32:40;9.57;;;8.82;;
72715;SDS011;60830;64.560;40.542;2022-07-05T06:35:08;9.55;;;8.00;;
72715;SDS011;60830;64.560;40.542;2022-07-05T06:37:42;8.93;;;8.00;;
72715;SDS011;60830;64.560;40.542;2022-07-05T06:40:16;7.82;;;7.05;;
72715;SDS011;60830;64.560;40.542;2022-07-05T06:42:54;9.40;;;7.55;;
72715;SDS011;60830;64.560;40.542;2022-07-05T06:45:29;12.68;;;8.05;;
72715;SDS011;60830;64.560;40.542;2022-07-05T06:47:56;7.18;;;6.57;;
72715;SDS011;60830;64.560;40.542;2022-07-05T06:50:25;9.38;;;8.45;;
72715;SDS011;60830;64.560;40.542;2022-07-05T06:52:53;8.85;;;8.05;;
72715;SDS011;60830;64.560;40.542;2022-07-05T06:55:20;10.27;;;8.65;;
72715;SDS011;60830;64.560;40.542;2022-07-05T06:57:47;10.02;;;9.07;;
72715;SDS011;60830;64.560;40.542;2022-07-05T07:00:14;8.68;;;7.88;;
72715;SDS011;60830;64.560;40.542;2022-07-05T07:02:41;10.95;;;8.98;;
72715;SDS011;60830;64.560;40.542;2022-07-05T07:05:07;10.73;;;9.73;;
72715;SDS011;60830;64.560;40.542;2022-07-05T07:07:34;11.20;;;10.13;;
72715;SDS011;60830;64.560;40.542;2022-07-05T07:10:19;9.95;;;9.05;;
72715;SDS011;60830;64.560;40.542;2022-07-05T07:12:45;12.23;;;9.85;;
72715;SDS011;60830;64.560;40.542;2022-07-05T07:15:12;10.90;;;9.90;;
72715;SDS011;60830;64.560;40.542;2022-07-05T07:17:38;11.57;;;10.23;;
72715;SDS011;60830;64.560;40.542;2022-07-05T07:20:05;11.35;;;10.18;;
72715;SDS011;60830;64.560;40.542;2022-07-05T07:22:31;10.68;;;9.70;;
72715;SDS011;60830;64.560;40.542;2022-07-05T07:24:58;11.55;;;10.20;;
72715;SDS011;60830;64.560;40.542;2022-07-05T07:27:24;11.77;;;10.05;;
72715;SDS011;60830;64.560;40.542;2022-07-05T07:29:51;14.07;;;10.00;;
72715;SDS011;60830;64.560;40.542;2022-07-05T07:32:17;12.35;;;11.07;;
72715;SDS011;60830;64.560;40.542;2022-07-05T07:34:44;9.60;;;8.80;;
72715;SDS011;60830;64.560;40.542;2022-07-05T07:37:11;11.25;;;9.63;;
72715;SDS011;60830;64.560;40.542;2022-07-05T07:39:40;10.57;;;9.60;;
72715;SDS011;60830;64.560;40.542;2022-07-05T07:42:07;10.32;;;9.43;;
72715;SDS011;60830;64.560;40.542;2022-07-05T07:44:34;13.52;;;11.13;;
72715;SDS011;60830;64.560;40.542;2022-07-05T07:47:00;11.13;;;10.13;;
72715;SDS011;60830;64.560;40.542;2022-07-05T07:49:27;11.45;;;9.90;;
72715;SDS011;60830;64.560;40.542;2022-07-05T07:51:53;9.82;;;8.80;;
72715;SDS011;60830;64.560;40.542;2022-07-05T07:54:20;10.20;;;9.27;;
72715;SDS011;60830;64.560;40.542;2022-07-05T07:56:46;10.85;;;9.20;;
72715;SDS011;60830;64.560;40.542;2022-07-05T07:59:13;10.50;;;9.48;;
72715;SDS011;60830;64.560;40.542;2022-07-05T08:01:39;9.90;;;9.02;;
72715;SDS011;60830;64.560;40.542;2022-07-05T08:04:06;11.63;;;7.78;;
72715;SDS011;60830;64.560;40.542;2022-07-05T08:06:32;9.40;;;8.20;;
72715;SDS011;60830;64.560;40.542;2022-07-05T08:08:59;8.38;;;7.57;;
72715;SDS011;60830;64.560;40.542;2022-07-05T08:11:25;9.70;;;8.73;;
72715;SDS011;60830;64.560;40.542;2022-07-05T08:13:52;10.40;;;9.40;;
72715;SDS011;60830;64.560;40.542;2022-07-05T08:16:18;11.18;;;9.52;;
72715;SDS011;60830;64.560;40.542;2022-07-05T08:18:45;9.13;;;8.23;;
72715;SDS011;60830;64.560;40.542;2022-07-05T08:21:30;10.13;;;9.07;;
72715;SDS011;60830;64.560;40.542;2022-07-05T08:24:09;11.32;;;8.93;;
72715;SDS011;60830;64.560;40.542;2022-07-05T08:26:38;10.15;;;9.25;;
72715;SDS011;60830;64.560;40.542;2022-07-05T08:29:06;11.05;;;9.18;;
72715;SDS011;60830;64.560;40.542;2022-07-05T08:31:36;13.07;;;10.23;;
72715;SDS011;60830;64.560;40.542;2022-07-05T08:34:05;9.75;;;8.73;;
72715;SDS011;60830;64.560;40.542;2022-07-05T08:36:32;10.50;;;8.60;;
72715;SDS011;60830;64.560;40.542;2022-07-05T08:38:59;12.20;;;9.82;;
72715;SDS011;60830;64.560;40.542;2022-07-05T08:41:25;7.50;;;6.57;;
72715;SDS011;60830;64.560;40.542;2022-07-05T08:43:52;9.52;;;8.05;;
72715;SDS011;60830;64.560;40.542;2022-07-05T08:46:19;8.90;;;7.75;;
72715;SDS011;60830;64.560;40.542;2022-07-05T08:48:47;8.07;;;7.28;;
72715;SDS011;60830;64.560;40.542;2022-07-05T08:51:16;8.88;;;8.02;;
72715;SDS011;60830;64.560;40.542;2022-07-05T08:53:47;6.55;;;5.60;;
72715;SDS011;60830;64.560;40.542;2022-07-05T08:56:15;6.15;;;5.55;;
72715;SDS011;60830;64.560;40.542;2022-07-05T08:58:42;6.10;;;5.60;;
72715;SDS011;60830;64.560;40.542;2022-07-05T09:01:09;4.80;;;4.38;;
72715;SDS011;60830;64.560;40.542;2022-07-05T09:03:44;6.65;;;4.72;;
72715;SDS011;60830;64.560;40.542;2022-07-05T09:06:15;5.97;;;5.47;;
72715;SDS011;60830;64.560;40.542;2022-07-05T09:08:45;6.50;;;6.00;;
72715;SDS011;60830;64.560;40.542;2022-07-05T09:11:14;7.13;;;5.63;;
72715;SDS011;60830;64.560;40.542;2022-07-05T09:13:44;6.55;;;5.95;;
72715;SDS011;60830;64.560;40.542;2022-07-05T09:16:16;6.00;;;5.50;;
72715;SDS011;60830;64.560;40.542;2022-07-05T09:18:51;5.47;;;4.97;;
72715;SDS011;60830;64.560;40.542;2022-07-05T09:21:20;5.78;;;5.25;;
72715;SDS011;60830;64.560;40.542;2022-07-05T09:23:56;9.52;;;6.25;;
72715;SDS011;60830;64.560;40.542;2022-07-05T09:29:10;3.65;;;3.35;;
72715;SDS011;60830;64.560;40.542;2022-07-05T09:31:39;5.32;;;4.82;;
72715;SDS011;60830;64.560;40.542;2022-07-05T09:34:08;5.47;;;4.90;;
72715;SDS011;60830;64.560;40.542;2022-07-05T09:36:55;6.45;;;5.85;;
72715;SDS011;60830;64.560;40.542;2022-07-05T09:44:41;7.95;;;5.00;;
72715;SDS011;60830;64.560;40.542;2022-07-05T09:47:15;5.10;;;4.60;;
72715;SDS011;60830;64.560;40.542;2022-07-05T09:49:44;6.28;;;4.20;;
72715;SDS011;60830;64.560;40.542;2022-07-05T09:55:03;5.78;;;4.80;;
72715;SDS011;60830;64.560;40.542;2022-07-05T09:57:31;6.90;;;5.85;;
72715;SDS011;60830;64.560;40.542;2022-07-05T10:00:00;5.15;;;4.75;;
72715;SDS011;60830;64.560;40.542;2022-07-05T10:02:44;6.43;;;5.80;;
72715;SDS011;60830;64.560;40.542;2022-07-05T10:05:14;5.80;;;5.30;;
72715;SDS011;60830;64.560;40.542;2022-07-05T10:07:43;6.85;;;5.47;;
72715;SDS011;60830;64.560;40.542;2022-07-05T10:10:12;5.00;;;4.45;;
72715;SDS011;60830;64.560;40.542;2022-07-05T10:12:44;5.60;;;5.10;;
72715;SDS011;60830;64.560;40.542;2022-07-05T10:15:14;6.28;;;5.53;;
72715;SDS011;60830;64.560;40.542;2022-07-05T10:17:45;5.70;;;5.20;;
72715;SDS011;60830;64.560;40.542;2022-07-05T10:20:25;6.20;;;5.63;;
72715;SDS011;60830;64.560;40.542;2022-07-05T10:22:58;7.27;;;6.60;;
72715;SDS011;60830;64.560;40.542;2022-07-05T10:25:29;5.15;;;3.95;;
72715;SDS011;60830;64.560;40.542;2022-07-05T10:27:59;7.10;;;6.05;;
72715;SDS011;60830;64.560;40.542;2022-07-05T10:30:26;9.88;;;6.25;;
72715;SDS011;60830;64.560;40.542;2022-07-05T10:32:53;6.43;;;5.90;;
72715;SDS011;60830;64.560;40.542;2022-07-05T10:35:22;7.80;;;7.00;;
72715;SDS011;60830;64.560;40.542;2022-07-05T10:37:49;8.20;;;7.40;;
72715;SDS011;60830;64.560;40.542;2022-07-05T10:40:16;6.90;;;6.20;;
72715;SDS011;60830;64.560;40.542;2022-07-05T10:42:48;6.53;;;5.93;;
72715;SDS011;60830;64.560;40.542;2022-07-05T10:45:31;6.63;;;4.18;;
72715;SDS011;60830;64.560;40.542;2022-07-05T10:48:21;7.65;;;5.60;;
72715;SDS011;60830;64.560;40.542;2022-07-05T10:50:59;6.97;;;6.13;;
72715;SDS011;60830;64.560;40.542;2022-07-05T10:58:37;7.50;;;5.90;;
72715;SDS011;60830;64.560;40.542;2022-07-05T11:03:47;6.85;;;6.18;;
72715;SDS011;60830;64.560;40.542;2022-07-05T11:06:19;8.55;;;6.90;;
72715;SDS011;60830;64.560;40.542;2022-07-05T11:11:26;7.07;;;6.47;;
72715;SDS011;60830;64.560;40.542;2022-07-05T11:13:58;7.60;;;6.32;;
72715;SDS011;60830;64.560;40.542;2022-07-05T11:16:30;7.15;;;6.55;;
72715;SDS011;60830;64.560;40.542;2022-07-05T11:19:05;7.40;;;6.80;;
72715;SDS011;60830;64.560;40.542;2022-07-05T11:21:36;7.57;;;6.88;;
72715;SDS011;60830;64.560;40.542;2022-07-05T11:24:26;7.78;;;6.57;;
72715;SDS011;60830;64.560;40.542;2022-07-05T11:26:57;7.38;;;6.68;;
72715;SDS011;60830;64.560;40.542;2022-07-05T11:29:43;7.85;;;7.15;;
72715;SDS011;60830;64.560;40.542;2022-07-05T11:32:12;8.68;;;7.82;;
72715;SDS011;60830;64.560;40.542;2022-07-05T11:34:50;6.85;;;6.15;;
72715;SDS011;60830;64.560;40.542;2022-07-05T11:42:39;7.70;;;7.00;;
72715;SDS011;60830;64.560;40.542;2022-07-05T11:45:15;9.65;;;6.40;;
72715;SDS011;60830;64.560;40.542;2022-07-05T11:47:42;8.05;;;6.53;;
72715;SDS011;60830;64.560;40.542;2022-07-05T11:50:10;6.63;;;6.05;;
72715;SDS011;60830;64.560;40.542;2022-07-05T11:52:38;7.45;;;6.38;;
72715;SDS011;60830;64.560;40.542;2022-07-05T11:55:07;7.78;;;6.20;;
72715;SDS011;60830;64.560;40.542;2022-07-05T11:57:35;6.60;;;6.03;;
72715;SDS011;60830;64.560;40.542;2022-07-05T12:00:03;6.57;;;5.97;;
72715;SDS011;60830;64.560;40.542;2022-07-05T12:02:43;6.30;;;5.70;;
72715;SDS011;60830;64.560;40.542;2022-07-05T12:05:10;10.32;;;6.32;;
72715;SDS011;60830;64.560;40.542;2022-07-05T12:07:48;8.32;;;6.53;;
72715;SDS011;60830;64.560;40.542;2022-07-05T12:10:18;6.38;;;4.80;;
72715;SDS011;60830;64.560;40.542;2022-07-05T12:13:05;9.90;;;7.13;;
72715;SDS011;60830;64.560;40.542;2022-07-05T12:15:32;7.40;;;6.60;;
72715;SDS011;60830;64.560;40.542;2022-07-05T12:18:00;6.35;;;5.65;;
72715;SDS011;60830;64.560;40.542;2022-07-05T12:20:31;5.38;;;4.57;;
72715;SDS011;60830;64.560;40.542;2022-07-05T12:22:59;7.90;;;5.95;;
72715;SDS011;60830;64.560;40.542;2022-07-05T12:25:27;7.57;;;5.63;;
72715;SDS011;60830;64.560;40.542;2022-07-05T12:27:55;10.23;;;6.28;;
72715;SDS011;60830;64.560;40.542;2022-07-05T12:30:23;9.18;;;5.85;;
72715;SDS011;60830;64.560;40.542;2022-07-05T12:32:57;7.32;;;5.85;;
72715;SDS011;60830;64.560;40.542;2022-07-05T12:35:33;7.45;;;6.22;;
72715;SDS011;60830;64.560;40.542;2022-07-05T12:38:08;8.00;;;6.50;;
72715;SDS011;60830;64.560;40.542;2022-07-05T12:40:36;10.90;;;7.32;;
72715;SDS011;60830;64.560;40.542;2022-07-05T12:43:06;13.55;;;7.20;;
72715;SDS011;60830;64.560;40.542;2022-07-05T12:45:40;15.80;;;8.55;;
72715;SDS011;60830;64.560;40.542;2022-07-05T12:48:09;11.23;;;7.50;;
72715;SDS011;60830;64.560;40.542;2022-07-05T12:51:11;20.27;;;8.73;;
72715;SDS011;60830;64.560;40.542;2022-07-05T12:53:31;11.55;;;8.05;;
72715;SDS011;60830;64.560;40.542;2022-07-05T12:56:16;11.40;;;8.25;;
72715;SDS011;60830;64.560;40.542;2022-07-05T12:59:08;17.67;;;7.50;;
72715;SDS011;60830;64.560;40.542;2022-07-05T13:01:39;9.23;;;6.03;;
72715;SDS011;60830;64.560;40.542;2022-07-05T13:04:09;10.45;;;6.65;;
72715;SDS011;60830;64.560;40.542;2022-07-05T13:12:08;7.13;;;5.95;;
72715;SDS011;60830;64.560;40.542;2022-07-05T13:14:51;8.68;;;5.90;;
72715;SDS011;60830;64.560;40.542;2022-07-05T13:17:19;10.38;;;5.45;;
72715;SDS011;60830;64.560;40.542;2022-07-05T13:19:49;8.57;;;6.50;;
72715;SDS011;60830;64.560;40.542;2022-07-05T13:22:17;12.15;;;6.18;;
72715;SDS011;60830;64.560;40.542;2022-07-05T13:24:44;11.75;;;9.48;;
72715;SDS011;60830;64.560;40.542;2022-07-05T13:27:11;8.18;;;5.63;;
72715;SDS011;60830;64.560;40.542;2022-07-05T13:29:38;8.93;;;6.60;;
72715;SDS011;60830;64.560;40.542;2022-07-05T13:32:05;9.93;;;6.55;;
72715;SDS011;60830;64.560;40.542;2022-07-05T13:34:32;9.98;;;6.03;;
72715;SDS011;60830;64.560;40.542;2022-07-05T13:36:59;9.32;;;6.40;;
72715;SDS011;60830;64.560;40.542;2022-07-05T13:39:27;8.23;;;6.85;;
72715;SDS011;60830;64.560;40.542;2022-07-05T13:41:54;7.53;;;6.45;;
72715;SDS011;60830;64.560;40.542;2022-07-05T13:44:21;12.10;;;7.35;;
72715;SDS011;60830;64.560;40.542;2022-07-05T13:46:48;12.43;;;6.97;;
72715;SDS011;60830;64.560;40.542;2022-07-05T13:49:15;7.18;;;5.32;;
